<?xml version="1.0" encoding="UTF-8" standalone="no" ?>
<gpx xmlns="http://www.topografix.com/GPX/1/1" xmlns:xsi="http://www.w3.org/2001/XMLSchema-instance" xsi:schemaLocation="http://www.topografix.com/GPX/1/1 http://www.topografix.com/GPX/1/1/gpx.xsd" version="1.1" creator="VisuGPX - https://www.visugpx.com">
  <metadata>
    <name>Trail coteaux</name>
    <desc><![CDATA[trail dans coteaux Pechbusque]]></desc>
  </metadata>
  <trk>
    <name><![CDATA[Sequence 4]]></name>
    <trkseg>
      <trkpt lat="43.53185" lon="1.44939">
        <ele>185</ele>
        <time>2016-02-24T09:07:52Z</time>
      </trkpt>
      <trkpt lat="43.53177" lon="1.44958">
        <ele>202</ele>
        <time>2016-02-24T09:08:13Z</time>
      </trkpt>
      <trkpt lat="43.53163" lon="1.45039">
        <ele>208</ele>
        <time>2016-02-24T09:08:45Z</time>
      </trkpt>
      <trkpt lat="43.53165" lon="1.45023">
        <ele>207</ele>
        <time>2016-02-24T09:08:50Z</time>
      </trkpt>
      <trkpt lat="43.53172" lon="1.45031">
        <ele>211</ele>
        <time>2016-02-24T09:08:54Z</time>
      </trkpt>
      <trkpt lat="43.53175" lon="1.45031">
        <ele>223</ele>
        <time>2016-02-24T09:09:02Z</time>
      </trkpt>
      <trkpt lat="43.5317" lon="1.45027">
        <ele>215</ele>
        <time>2016-02-24T09:09:06Z</time>
      </trkpt>
      <trkpt lat="43.53182" lon="1.45023">
        <ele>214</ele>
        <time>2016-02-24T09:09:15Z</time>
      </trkpt>
      <trkpt lat="43.53198" lon="1.45023">
        <ele>214</ele>
        <time>2016-02-24T09:09:19Z</time>
      </trkpt>
      <trkpt lat="43.53213" lon="1.45016">
        <ele>227</ele>
        <time>2016-02-24T09:09:27Z</time>
      </trkpt>
      <trkpt lat="43.53216" lon="1.45015">
        <ele>225</ele>
        <time>2016-02-24T09:09:29Z</time>
      </trkpt>
      <trkpt lat="43.53225" lon="1.4502">
        <ele>219</ele>
        <time>2016-02-24T09:09:37Z</time>
      </trkpt>
      <trkpt lat="43.53283" lon="1.45037">
        <ele>227</ele>
        <time>2016-02-24T09:10:18Z</time>
      </trkpt>
      <trkpt lat="43.53301" lon="1.45046">
        <ele>226</ele>
        <time>2016-02-24T09:10:23Z</time>
      </trkpt>
      <trkpt lat="43.53271" lon="1.45056">
        <ele>217</ele>
        <time>2016-02-24T09:10:30Z</time>
      </trkpt>
      <trkpt lat="43.53267" lon="1.45059">
        <ele>217</ele>
        <time>2016-02-24T09:10:31Z</time>
      </trkpt>
      <trkpt lat="43.53276" lon="1.45072">
        <ele>225</ele>
        <time>2016-02-24T09:10:37Z</time>
      </trkpt>
      <trkpt lat="43.53279" lon="1.45086">
        <ele>226</ele>
        <time>2016-02-24T09:10:47Z</time>
      </trkpt>
      <trkpt lat="43.53271" lon="1.45093">
        <ele>230</ele>
        <time>2016-02-24T09:10:54Z</time>
      </trkpt>
      <trkpt lat="43.53268" lon="1.45098">
        <ele>231</ele>
        <time>2016-02-24T09:10:55Z</time>
      </trkpt>
      <trkpt lat="43.53252" lon="1.45115">
        <ele>231</ele>
        <time>2016-02-24T09:11:04Z</time>
      </trkpt>
      <trkpt lat="43.53234" lon="1.45132">
        <ele>230</ele>
        <time>2016-02-24T09:11:11Z</time>
      </trkpt>
      <trkpt lat="43.53221" lon="1.45158">
        <ele>228</ele>
        <time>2016-02-24T09:11:18Z</time>
      </trkpt>
      <trkpt lat="43.5322" lon="1.45161">
        <ele>227</ele>
        <time>2016-02-24T09:11:19Z</time>
      </trkpt>
      <trkpt lat="43.53211" lon="1.4518">
        <ele>227</ele>
        <time>2016-02-24T09:11:27Z</time>
      </trkpt>
      <trkpt lat="43.53201" lon="1.452">
        <ele>228</ele>
        <time>2016-02-24T09:11:36Z</time>
      </trkpt>
      <trkpt lat="43.53197" lon="1.45211">
        <ele>228</ele>
        <time>2016-02-24T09:11:40Z</time>
      </trkpt>
      <trkpt lat="43.53188" lon="1.45222">
        <ele>231</ele>
        <time>2016-02-24T09:11:43Z</time>
      </trkpt>
      <trkpt lat="43.5318" lon="1.45236">
        <ele>232</ele>
        <time>2016-02-24T09:11:52Z</time>
      </trkpt>
      <trkpt lat="43.5317" lon="1.45263">
        <ele>231</ele>
        <time>2016-02-24T09:12:00Z</time>
      </trkpt>
      <trkpt lat="43.53159" lon="1.45272">
        <ele>230</ele>
        <time>2016-02-24T09:12:06Z</time>
      </trkpt>
      <trkpt lat="43.53156" lon="1.45272">
        <ele>230</ele>
        <time>2016-02-24T09:12:07Z</time>
      </trkpt>
      <trkpt lat="43.53147" lon="1.45283">
        <ele>231</ele>
        <time>2016-02-24T09:12:13Z</time>
      </trkpt>
      <trkpt lat="43.5314" lon="1.45296">
        <ele>231</ele>
        <time>2016-02-24T09:12:21Z</time>
      </trkpt>
      <trkpt lat="43.53134" lon="1.45303">
        <ele>229</ele>
        <time>2016-02-24T09:12:28Z</time>
      </trkpt>
      <trkpt lat="43.53111" lon="1.45339">
        <ele>239</ele>
        <time>2016-02-24T09:12:36Z</time>
      </trkpt>
      <trkpt lat="43.53099" lon="1.45351">
        <ele>241</ele>
        <time>2016-02-24T09:12:41Z</time>
      </trkpt>
      <trkpt lat="43.53093" lon="1.45358">
        <ele>242</ele>
        <time>2016-02-24T09:12:43Z</time>
      </trkpt>
      <trkpt lat="43.53076" lon="1.45382">
        <ele>240</ele>
        <time>2016-02-24T09:12:54Z</time>
      </trkpt>
      <trkpt lat="43.53072" lon="1.45385">
        <ele>239</ele>
        <time>2016-02-24T09:12:55Z</time>
      </trkpt>
      <trkpt lat="43.53058" lon="1.45401">
        <ele>237</ele>
        <time>2016-02-24T09:13:02Z</time>
      </trkpt>
      <trkpt lat="43.53048" lon="1.45409">
        <ele>239</ele>
        <time>2016-02-24T09:13:07Z</time>
      </trkpt>
      <trkpt lat="43.53043" lon="1.45423">
        <ele>238</ele>
        <time>2016-02-24T09:13:13Z</time>
      </trkpt>
      <trkpt lat="43.53045" lon="1.45439">
        <ele>239</ele>
        <time>2016-02-24T09:13:19Z</time>
      </trkpt>
    </trkseg>
  </trk>
</gpx>